createdAt,value
2018-12-30T00:00:23.971Z,87.37
2018-12-30T00:01:30.780Z,87.38
2018-12-30T00:02:37.505Z,87.39
2018-12-30T00:03:44.192Z,87.37
2018-12-30T00:04:51.439Z,87.40
2018-12-30T00:05:58.041Z,87.41
2018-12-30T00:07:05.236Z,87.42
2018-12-30T00:08:11.940Z,87.43
2018-12-30T00:09:18.588Z,87.44
2018-12-30T00:10:25.679Z,87.45
2018-12-30T00:11:32.900Z,87.47
2018-12-30T00:12:39.617Z,87.50
2018-12-30T00:13:46.237Z,87.53
2018-12-30T00:14:53.419Z,87.57
2018-12-30T00:16:00.040Z,87.66
2018-12-30T00:17:06.850Z,87.75
2018-12-30T00:18:13.554Z,87.84
2018-12-30T00:19:20.306Z,87.90
2018-12-30T00:20:26.867Z,87.91
2018-12-30T00:21:34.172Z,87.86
2018-12-30T00:22:40.807Z,87.82
2018-12-30T00:23:47.848Z,87.80
2018-12-30T00:24:55.120Z,87.79
2018-12-30T00:26:01.743Z,87.79
2018-12-30T00:27:09.024Z,87.78
2018-12-30T00:28:15.657Z,87.76
2018-12-30T00:29:22.421Z,87.76
2018-12-30T00:30:29.598Z,87.76
2018-12-30T00:31:36.380Z,87.73
2018-12-30T00:32:43.027Z,87.73
2018-12-30T00:33:50.302Z,87.75
2018-12-30T00:34:56.975Z,87.75
2018-12-30T00:36:04.238Z,87.78
2018-12-30T00:37:10.932Z,87.78
2018-12-30T00:38:18.073Z,87.78
2018-12-30T00:39:25.223Z,87.78
2018-12-30T00:40:32.436Z,87.77
2018-12-30T00:41:39.116Z,87.79
2018-12-30T00:42:45.754Z,87.78
2018-12-30T00:43:53.036Z,87.78
2018-12-30T00:44:59.691Z,87.79
2018-12-30T00:46:06.940Z,87.77
2018-12-30T00:47:13.655Z,87.79
2018-12-30T00:48:20.604Z,87.78
2018-12-30T00:49:27.162Z,87.80
2018-12-30T00:50:34.235Z,87.83
2018-12-30T00:51:41.246Z,87.83
2018-12-30T00:52:48.347Z,87.87
2018-12-30T00:53:55.420Z,87.93
2018-12-30T00:55:02.453Z,88.00
2018-12-30T00:56:09.384Z,88.08
2018-12-30T00:57:16.057Z,88.16
2018-12-30T00:58:22.951Z,88.21
2018-12-30T00:59:29.585Z,88.23
2018-12-30T01:00:36.969Z,88.20
2018-12-30T01:01:43.716Z,88.19
2018-12-30T01:02:50.525Z,88.15
2018-12-30T01:03:57.157Z,88.12
2018-12-30T01:05:04.360Z,88.10
2018-12-30T01:06:11.092Z,88.06
2018-12-30T01:07:17.677Z,88.05
2018-12-30T01:08:24.952Z,88.06
2018-12-30T01:09:31.588Z,88.04
2018-12-30T01:10:38.863Z,88.03
2018-12-30T01:11:45.428Z,88.00
2018-12-30T01:12:52.613Z,88.01
2018-12-30T01:13:59.696Z,87.99
2018-12-30T01:15:06.912Z,87.99
2018-12-30T01:16:13.668Z,87.97
2018-12-30T01:17:20.383Z,87.98
2018-12-30T01:18:26.980Z,87.98
2018-12-30T01:19:34.109Z,87.96
2018-12-30T01:20:41.194Z,87.98
2018-12-30T01:21:48.267Z,87.99
2018-12-30T01:22:55.738Z,87.97
2018-12-30T01:24:02.530Z,87.97
2018-12-30T01:25:09.272Z,87.97
2018-12-30T01:26:15.930Z,87.98
2018-12-30T01:27:23.209Z,87.98
2018-12-30T01:28:29.841Z,88.00
2018-12-30T01:29:37.068Z,88.00
2018-12-30T01:30:43.692Z,88.01
2018-12-30T01:31:50.987Z,88.01
2018-12-30T01:32:57.762Z,88.02
2018-12-30T01:34:04.549Z,88.03
2018-12-30T01:35:11.184Z,88.04
2018-12-30T01:36:18.258Z,88.04
2018-12-30T01:37:25.520Z,88.07
2018-12-30T01:38:32.081Z,88.07
2018-12-30T01:39:39.292Z,88.10
2018-12-30T01:40:45.848Z,88.11
2018-12-30T01:41:53.098Z,88.13
2018-12-30T01:42:59.780Z,88.14
2018-12-30T01:44:07.064Z,88.18
2018-12-30T01:45:13.796Z,88.17
2018-12-30T01:46:21.019Z,88.18
2018-12-30T01:47:27.636Z,88.20
2018-12-30T01:48:34.911Z,88.20
2018-12-30T01:49:41.442Z,88.26
2018-12-30T01:50:48.552Z,88.25
2018-12-30T01:51:55.727Z,88.28
2018-12-30T01:53:02.876Z,88.33
2018-12-30T01:54:09.986Z,88.35
2018-12-30T01:55:17.279Z,88.37
2018-12-30T01:56:24.016Z,88.38
2018-12-30T01:57:30.679Z,88.40
2018-12-30T01:58:37.952Z,88.40
2018-12-30T01:59:44.650Z,88.42
2018-12-30T02:00:51.348Z,88.44
2018-12-30T02:01:57.968Z,88.45
2018-12-30T02:03:05.229Z,88.46
2018-12-30T02:04:11.892Z,88.49
2018-12-30T02:05:19.077Z,88.49
2018-12-30T02:06:25.918Z,88.52
2018-12-30T02:07:32.764Z,88.52
2018-12-30T02:08:39.976Z,88.58
2018-12-30T02:09:46.636Z,88.61
2018-12-30T02:10:53.397Z,88.61
2018-12-30T02:12:00.057Z,88.66
2018-12-30T02:13:07.336Z,88.66
2018-12-30T02:14:13.838Z,88.65
2018-12-30T02:15:21.195Z,88.67
2018-12-30T02:16:27.837Z,88.68
2018-12-30T02:17:34.952Z,88.69
2018-12-30T02:18:42.077Z,88.71
2018-12-30T02:19:49.180Z,88.73
2018-12-30T02:20:56.351Z,88.75
2018-12-30T02:22:03.088Z,88.76
2018-12-30T02:23:10.474Z,88.80
2018-12-30T02:24:17.032Z,88.81
2018-12-30T02:25:24.244Z,88.82
2018-12-30T02:26:31.285Z,88.85
2018-12-30T02:27:38.512Z,88.87
2018-12-30T02:28:45.580Z,88.88
2018-12-30T02:29:52.904Z,88.88
2018-12-30T02:30:59.495Z,88.92
2018-12-30T02:32:06.750Z,88.95
2018-12-30T02:33:13.309Z,88.97
2018-12-30T02:34:20.578Z,88.99
2018-12-30T02:35:27.280Z,89.00
2018-12-30T02:36:34.420Z,88.98
2018-12-30T02:37:41.527Z,89.00
2018-12-30T02:38:48.558Z,89.03
2018-12-30T02:39:55.631Z,89.05
2018-12-30T02:41:02.836Z,89.05
2018-12-30T02:42:09.468Z,89.06
2018-12-30T02:43:16.556Z,89.07
2018-12-30T02:44:23.716Z,89.06
2018-12-30T02:45:30.764Z,89.07
2018-12-30T02:46:37.991Z,89.07
2018-12-30T02:47:44.630Z,89.08
2018-12-30T02:48:51.910Z,89.09
2018-12-30T02:49:58.484Z,89.09
2018-12-30T02:51:05.561Z,89.10
2018-12-30T02:52:12.736Z,89.12
2018-12-30T02:53:19.999Z,89.13
2018-12-30T02:54:26.671Z,89.16
2018-12-30T02:55:33.323Z,89.17
2018-12-30T02:56:40.504Z,89.17
2018-12-30T02:57:47.349Z,89.17
2018-12-30T02:58:54.400Z,89.20
2018-12-30T03:00:01.497Z,89.21
2018-12-30T03:01:08.485Z,89.21
2018-12-30T03:02:15.602Z,89.24
2018-12-30T03:03:22.816Z,89.24
2018-12-30T03:04:29.378Z,89.24
2018-12-30T03:05:36.653Z,89.27
2018-12-30T03:06:43.452Z,89.28
2018-12-30T03:07:50.184Z,89.27
2018-12-30T03:08:56.744Z,89.32
2018-12-30T03:10:03.917Z,89.33
2018-12-30T03:11:10.519Z,89.37
2018-12-30T03:12:17.798Z,89.35
2018-12-30T03:13:24.467Z,89.36
2018-12-30T03:14:31.090Z,89.40
2018-12-30T03:15:38.355Z,89.37
2018-12-30T03:16:45.050Z,89.38
2018-12-30T03:17:52.296Z,89.39
2018-12-30T03:18:58.793Z,89.40
2018-12-30T03:20:06.033Z,89.39
2018-12-30T03:21:12.696Z,89.44
2018-12-30T03:22:19.330Z,89.45
2018-12-30T03:23:26.536Z,89.46
2018-12-30T03:24:33.202Z,89.49
2018-12-30T03:25:40.385Z,89.50
2018-12-30T03:26:47.036Z,89.55
2018-12-30T03:27:54.232Z,89.55
2018-12-30T03:29:00.883Z,89.56
2018-12-30T03:30:08.081Z,89.59
2018-12-30T03:31:14.820Z,89.61
2018-12-30T03:32:22.112Z,89.62
2018-12-30T03:33:28.681Z,89.63
2018-12-30T03:34:35.915Z,89.66
2018-12-30T03:35:42.597Z,89.67
2018-12-30T03:36:49.247Z,89.69
2018-12-30T03:37:55.820Z,89.70
2018-12-30T03:39:03.094Z,89.72
2018-12-30T03:40:10.068Z,89.73
2018-12-30T03:41:17.151Z,89.76
2018-12-30T03:42:24.333Z,89.78
2018-12-30T03:43:30.977Z,89.78
2018-12-30T03:44:38.148Z,89.79
2018-12-30T03:45:44.705Z,89.81
2018-12-30T03:46:51.979Z,89.84
2018-12-30T03:47:58.591Z,89.84
2018-12-30T03:49:05.768Z,89.85
2018-12-30T03:50:12.399Z,89.82
2018-12-30T03:51:19.450Z,89.88
2018-12-30T03:52:26.544Z,89.87
2018-12-30T03:53:33.696Z,89.88
2018-12-30T03:54:40.876Z,89.92
2018-12-30T03:55:47.486Z,89.95
2018-12-30T03:56:54.915Z,89.94
2018-12-30T03:58:01.496Z,89.92
2018-12-30T03:59:08.647Z,89.97
2018-12-30T04:00:15.716Z,89.96
2018-12-30T04:01:23.012Z,89.98
2018-12-30T04:02:29.701Z,89.99
2018-12-30T04:03:36.448Z,90.01
2018-12-30T04:04:43.089Z,90.01
2018-12-30T04:05:50.296Z,90.04
2018-12-30T04:06:56.927Z,90.05
2018-12-30T04:08:04.224Z,90.06
2018-12-30T04:09:10.969Z,90.09
2018-12-30T04:10:18.242Z,90.10
2018-12-30T04:11:25.012Z,90.11
2018-12-30T04:12:31.688Z,90.16
2018-12-30T04:13:38.557Z,90.22
2018-12-30T04:14:45.197Z,90.20
2018-12-30T04:15:52.487Z,90.22
2018-12-30T04:16:59.136Z,90.23
2018-12-30T04:18:06.435Z,90.24
2018-12-30T04:19:13.071Z,90.26
2018-12-30T04:20:20.353Z,90.29
2018-12-30T04:21:27.036Z,90.32
2018-12-30T04:22:33.928Z,90.35
2018-12-30T04:23:40.672Z,90.36
2018-12-30T04:24:47.400Z,90.37
2018-12-30T04:25:54.531Z,90.41
2018-12-30T04:27:01.604Z,90.42
2018-12-30T04:28:08.789Z,90.42
2018-12-30T04:29:15.886Z,90.47
2018-12-30T04:30:23.193Z,90.49
2018-12-30T04:31:29.800Z,90.53
2018-12-30T04:32:37.032Z,90.55
2018-12-30T04:33:43.717Z,90.56
2018-12-30T04:34:50.459Z,90.59
2018-12-30T04:35:57.216Z,90.59
2018-12-30T04:37:04.505Z,90.61
2018-12-30T04:38:11.168Z,90.66
2018-12-30T04:39:18.256Z,90.66
2018-12-30T04:40:25.487Z,90.69
2018-12-30T04:41:32.073Z,90.70
2018-12-30T04:42:39.262Z,90.73
2018-12-30T04:43:46.052Z,90.74
2018-12-30T04:44:52.736Z,90.75
2018-12-30T04:45:59.847Z,90.78
2018-12-30T04:47:07.113Z,90.83
2018-12-30T04:48:13.885Z,90.82
2018-12-30T04:49:20.687Z,90.83
2018-12-30T04:50:27.312Z,90.84
2018-12-30T04:51:34.192Z,90.89
2018-12-30T04:52:40.885Z,90.90
2018-12-30T04:53:48.035Z,90.91
2018-12-30T04:54:55.472Z,90.93
2018-12-30T04:56:02.160Z,90.96
2018-12-30T04:57:09.244Z,90.98
2018-12-30T04:58:16.503Z,91.00
2018-12-30T04:59:23.213Z,91.00
2018-12-30T05:00:29.949Z,90.99
2018-12-30T05:01:37.224Z,91.02
2018-12-30T05:02:43.876Z,91.03
2018-12-30T05:03:51.159Z,91.05
2018-12-30T05:04:57.719Z,91.08
2018-12-30T05:06:04.995Z,91.09
2018-12-30T05:07:11.656Z,91.12
2018-12-30T05:08:18.837Z,91.13
2018-12-30T05:09:25.625Z,91.13
2018-12-30T05:10:32.775Z,91.16
2018-12-30T05:11:39.431Z,91.17
2018-12-30T05:12:46.580Z,91.19
2018-12-30T05:13:53.794Z,91.22
2018-12-30T05:15:00.569Z,91.23
2018-12-30T05:16:07.529Z,91.23
2018-12-30T05:17:14.175Z,91.24
2018-12-30T05:18:21.399Z,91.26
2018-12-30T05:19:28.050Z,91.26
2018-12-30T05:20:35.300Z,91.28
2018-12-30T05:21:41.887Z,91.28
2018-12-30T05:22:49.037Z,91.29
2018-12-30T05:23:56.216Z,91.30
2018-12-30T05:25:02.892Z,91.34
2018-12-30T05:26:09.672Z,91.37
2018-12-30T05:27:16.307Z,91.37
2018-12-30T05:28:23.483Z,91.41
2018-12-30T05:29:30.139Z,91.42
2018-12-30T05:30:37.329Z,91.41
2018-12-30T05:31:44.088Z,91.41
2018-12-30T05:32:50.841Z,91.41
2018-12-30T05:33:57.611Z,91.46
2018-12-30T05:35:04.404Z,91.45
2018-12-30T05:36:11.133Z,91.47
2018-12-30T05:37:17.806Z,91.46
2018-12-30T05:38:25.173Z,91.48
2018-12-30T05:39:31.752Z,91.50
2018-12-30T05:40:38.937Z,91.51
2018-12-30T05:41:45.949Z,91.51
2018-12-30T05:42:53.267Z,91.54
2018-12-30T05:43:59.933Z,91.54
2018-12-30T05:45:06.703Z,91.52
2018-12-30T05:46:13.367Z,91.54
2018-12-30T05:47:20.695Z,91.53
2018-12-30T05:48:27.287Z,91.54
2018-12-30T05:49:34.576Z,91.55
2018-12-30T05:50:41.249Z,91.55
2018-12-30T05:51:47.945Z,91.58
2018-12-30T05:52:54.981Z,91.56
2018-12-30T05:54:01.633Z,91.58
2018-12-30T05:55:08.912Z,91.57
2018-12-30T05:56:15.684Z,91.57
2018-12-30T05:57:22.619Z,91.56
2018-12-30T05:58:29.206Z,91.57
2018-12-30T05:59:36.494Z,91.60
2018-12-30T06:00:42.956Z,91.56
2018-12-30T06:01:50.215Z,91.56
2018-12-30T06:02:56.893Z,91.57
2018-12-30T06:04:04.056Z,91.55
2018-12-30T06:05:11.129Z,91.60
2018-12-30T06:06:18.224Z,91.58
2018-12-30T06:07:25.390Z,91.57
2018-12-30T06:08:32.008Z,91.55
2018-12-30T06:09:39.180Z,91.56
2018-12-30T06:10:45.865Z,91.55
2018-12-30T06:11:53.084Z,91.55
2018-12-30T06:12:59.706Z,91.56
2018-12-30T06:14:07.096Z,91.57
2018-12-30T06:15:13.743Z,91.54
2018-12-30T06:16:21.056Z,91.54
2018-12-30T06:17:27.688Z,91.55
2018-12-30T06:18:34.462Z,91.54
2018-12-30T06:19:41.532Z,91.56
2018-12-30T06:20:48.704Z,91.56
2018-12-30T06:21:55.385Z,91.56
2018-12-30T06:23:02.500Z,91.56
2018-12-30T06:24:09.161Z,91.59
2018-12-30T06:25:16.496Z,91.56
2018-12-30T06:26:23.242Z,91.60
2018-12-30T06:27:30.518Z,91.57
2018-12-30T06:28:36.983Z,91.58
2018-12-30T06:29:43.579Z,91.57
2018-12-30T06:30:50.816Z,91.56
2018-12-30T06:31:57.488Z,91.55
2018-12-30T06:33:04.758Z,91.54
2018-12-30T06:34:11.644Z,91.49
2018-12-30T06:35:18.282Z,91.50
2018-12-30T06:36:25.603Z,91.53
2018-12-30T06:37:32.228Z,91.56
2018-12-30T06:38:39.420Z,91.61
2018-12-30T06:39:46.367Z,91.69
2018-12-30T06:40:53.652Z,91.73
2018-12-30T06:42:00.321Z,91.71
2018-12-30T06:43:07.101Z,91.67
2018-12-30T06:44:13.936Z,91.62
2018-12-30T06:45:20.685Z,91.57
2018-12-30T06:46:27.259Z,91.51
2018-12-30T06:47:34.359Z,91.48
2018-12-30T06:48:41.404Z,91.40
2018-12-30T06:49:48.687Z,91.35
2018-12-30T06:50:55.469Z,91.33
2018-12-30T06:52:02.057Z,91.29
2018-12-30T06:53:09.204Z,91.28
2018-12-30T06:54:15.961Z,91.28
2018-12-30T06:55:23.182Z,91.28
2018-12-30T06:56:29.389Z,91.29
2018-12-30T06:57:36.983Z,91.30
2018-12-30T06:58:43.937Z,91.29
2018-12-30T06:59:50.711Z,91.30
2018-12-30T07:00:57.340Z,91.27
2018-12-30T07:02:04.530Z,91.29
2018-12-30T07:03:11.211Z,91.28
2018-12-30T07:04:18.377Z,91.26
2018-12-30T07:05:25.033Z,91.24
2018-12-30T07:06:32.071Z,91.21
2018-12-30T07:07:39.301Z,91.15
2018-12-30T07:08:45.949Z,91.07
2018-12-30T07:09:53.223Z,91.03
2018-12-30T07:10:59.914Z,90.97
2018-12-30T07:12:06.651Z,90.91
2018-12-30T07:13:13.342Z,90.88
2018-12-30T07:14:20.384Z,90.83
2018-12-30T07:15:27.068Z,90.78
2018-12-30T07:16:33.724Z,90.75
2018-12-30T07:17:40.495Z,90.72
2018-12-30T07:18:47.163Z,90.69
2018-12-30T07:19:54.309Z,90.68
2018-12-30T07:21:01.476Z,90.62
2018-12-30T07:22:08.663Z,90.59
2018-12-30T07:23:15.356Z,90.57
2018-12-30T07:24:22.084Z,90.55
2018-12-30T07:25:28.764Z,90.51
2018-12-30T07:26:36.030Z,90.48
2018-12-30T07:27:42.623Z,90.44
2018-12-30T07:28:49.884Z,90.40
2018-12-30T07:29:56.518Z,90.39
2018-12-30T07:31:03.701Z,90.38
2018-12-30T07:32:10.352Z,90.33
2018-12-30T07:33:17.575Z,90.33
2018-12-30T07:34:24.303Z,90.33
2018-12-30T07:35:30.972Z,90.31
2018-12-30T07:36:38.243Z,90.27
2018-12-30T07:37:44.900Z,90.25
2018-12-30T07:38:52.124Z,90.25
2018-12-30T07:39:58.749Z,90.24
2018-12-30T07:41:06.020Z,90.23
2018-12-30T07:42:12.684Z,90.20
2018-12-30T07:43:19.313Z,90.20
2018-12-30T07:44:26.428Z,90.19
2018-12-30T07:45:33.591Z,90.17
2018-12-30T07:46:40.864Z,90.19
2018-12-30T07:47:47.540Z,90.17
2018-12-30T07:48:54.316Z,90.17
2018-12-30T07:50:00.957Z,90.15
2018-12-30T07:51:08.028Z,90.12
2018-12-30T07:52:14.705Z,90.13
2018-12-30T07:53:21.981Z,90.12
2018-12-30T07:54:28.660Z,90.09
2018-12-30T07:55:35.410Z,90.06
2018-12-30T07:56:42.056Z,90.05
2018-12-30T07:57:48.628Z,90.03
2018-12-30T07:58:55.704Z,90.00
2018-12-30T08:00:02.898Z,89.98
2018-12-30T08:01:09.853Z,89.92
2018-12-30T08:02:16.411Z,89.89
2018-12-30T08:03:23.587Z,89.88
2018-12-30T08:04:30.776Z,89.89
2018-12-30T08:05:37.415Z,89.86
2018-12-30T08:06:44.584Z,89.85
2018-12-30T08:07:51.786Z,89.85
2018-12-30T08:08:58.416Z,89.84
2018-12-30T08:10:05.719Z,89.84
2018-12-30T08:11:12.445Z,89.83
2018-12-30T08:12:19.738Z,89.81
2018-12-30T08:13:26.315Z,89.76
2018-12-30T08:14:33.603Z,89.74
2018-12-30T08:15:40.651Z,89.72
2018-12-30T08:16:47.204Z,89.71
2018-12-30T08:17:54.487Z,89.68
2018-12-30T08:19:01.144Z,89.66
2018-12-30T08:20:08.353Z,89.67
2018-12-30T08:21:14.924Z,89.65
2018-12-30T08:22:22.164Z,89.65
2018-12-30T08:23:28.825Z,89.65
2018-12-30T08:24:36.106Z,89.66
2018-12-30T08:25:42.893Z,89.65
2018-12-30T08:26:49.641Z,89.64
2018-12-30T08:27:56.301Z,89.66
2018-12-30T08:29:03.440Z,89.62
2018-12-30T08:30:10.667Z,89.63
2018-12-30T08:31:17.309Z,89.61
2018-12-30T08:32:24.588Z,89.60
2018-12-30T08:33:31.347Z,89.61
2018-12-30T08:34:38.132Z,89.63
2018-12-30T08:35:45.096Z,89.59
2018-12-30T08:36:52.035Z,89.61
2018-12-30T08:37:58.709Z,89.58
2018-12-30T08:39:05.875Z,89.59
2018-12-30T08:40:12.996Z,89.63
2018-12-30T08:41:20.231Z,89.68
2018-12-30T08:42:26.900Z,89.75
2018-12-30T08:43:34.015Z,89.78
2018-12-30T08:44:40.632Z,89.77
2018-12-30T08:45:47.791Z,89.78
2018-12-30T08:46:56.354Z,89.76
2018-12-30T08:48:01.852Z,89.75
2018-12-30T08:49:09.144Z,89.74
2018-12-30T08:50:15.931Z,89.73
2018-12-30T08:51:22.669Z,89.72
2018-12-30T08:52:29.320Z,89.72
2018-12-30T08:53:36.568Z,89.74
2018-12-30T08:54:43.141Z,89.74
2018-12-30T08:55:50.461Z,89.71
2018-12-30T08:56:57.201Z,89.71
2018-12-30T08:58:04.382Z,89.72
2018-12-30T08:59:10.950Z,89.70
2018-12-30T09:00:18.226Z,89.72
2018-12-30T09:01:28.338Z,89.70
2018-12-30T09:02:31.670Z,89.71
2018-12-30T09:03:38.930Z,89.67
2018-12-30T09:04:45.602Z,89.66
2018-12-30T09:05:52.888Z,89.67
2018-12-30T09:06:59.707Z,89.69
2018-12-30T09:08:06.792Z,89.68
2018-12-30T09:09:13.477Z,89.68
2018-12-30T09:10:23.401Z,89.70
2018-12-30T09:11:27.120Z,89.70
2018-12-30T09:12:33.704Z,89.71
2018-12-30T09:13:40.843Z,89.75
2018-12-30T09:14:47.964Z,89.73
2018-12-30T09:15:55.536Z,89.80
2018-12-30T09:17:02.363Z,89.80
2018-12-30T09:18:09.024Z,89.79
2018-12-30T09:19:15.787Z,89.84
2018-12-30T09:20:22.524Z,89.86
2018-12-30T09:21:29.594Z,89.89
2018-12-30T09:22:36.927Z,89.92
2018-12-30T09:23:43.657Z,89.93
2018-12-30T09:24:50.437Z,89.97
2018-12-30T09:25:57.104Z,89.95
2018-12-30T09:27:03.807Z,89.98
2018-12-30T09:28:10.554Z,89.99
2018-12-30T09:29:17.323Z,90.00
2018-12-30T09:30:24.165Z,90.05
2018-12-30T09:31:31.083Z,90.07
2018-12-30T09:32:38.132Z,90.10
2018-12-30T09:33:44.903Z,90.12
2018-12-30T09:34:51.764Z,90.15
2018-12-30T09:35:58.652Z,90.14
2018-12-30T09:37:05.564Z,90.18
2018-12-30T09:38:12.156Z,90.20
2018-12-30T09:39:19.004Z,90.23
2018-12-30T09:40:25.823Z,90.21
2018-12-30T09:41:32.606Z,90.25
2018-12-30T09:42:40.036Z,90.27
2018-12-30T09:43:46.977Z,90.28
2018-12-30T09:44:53.737Z,90.31
2018-12-30T09:46:00.436Z,90.35
2018-12-30T09:47:07.687Z,90.35
2018-12-30T09:48:14.667Z,90.35
2018-12-30T09:49:21.412Z,90.34
2018-12-30T09:50:28.313Z,90.38
2018-12-30T09:51:35.228Z,90.38
2018-12-30T09:52:41.923Z,90.40
2018-12-30T09:53:48.583Z,90.40
2018-12-30T09:54:55.741Z,90.40
2018-12-30T09:56:02.924Z,90.42
2018-12-30T09:57:10.224Z,90.45
2018-12-30T09:58:16.853Z,90.48
2018-12-30T09:59:24.024Z,90.50
2018-12-30T10:00:31.163Z,90.49
2018-12-30T10:01:38.379Z,90.52
2018-12-30T10:02:45.160Z,90.53
2018-12-30T10:03:52.029Z,90.52
2018-12-30T10:04:58.669Z,90.55
2018-12-30T10:06:05.891Z,90.56
2018-12-30T10:07:12.572Z,90.58
2018-12-30T10:08:19.196Z,90.60
2018-12-30T10:09:26.351Z,90.57
2018-12-30T10:10:33.527Z,90.56
2018-12-30T10:11:40.164Z,90.56
2018-12-30T10:12:46.812Z,90.57
2018-12-30T10:13:54.028Z,90.56
2018-12-30T10:15:09.313Z,90.55
2018-12-30T10:16:07.679Z,90.51
2018-12-30T10:17:14.419Z,90.50
2018-12-30T10:18:21.317Z,90.48
2018-12-30T10:19:28.064Z,90.45
2018-12-30T10:20:35.343Z,90.44
2018-12-30T10:21:42.104Z,90.42
2018-12-30T10:22:49.197Z,90.40
2018-12-30T10:23:56.335Z,90.38
2018-12-30T10:25:03.522Z,90.34
2018-12-30T10:26:10.485Z,90.32
2018-12-30T10:27:17.072Z,90.28
2018-12-30T10:28:24.143Z,90.27
2018-12-30T10:29:30.683Z,90.23
2018-12-30T10:30:37.853Z,90.20
2018-12-30T10:31:44.520Z,90.18
2018-12-30T10:32:51.692Z,90.16
2018-12-30T10:33:58.367Z,90.13
2018-12-30T10:35:05.128Z,90.09
2018-12-30T10:36:11.740Z,90.08
2018-12-30T10:37:18.831Z,90.06
2018-12-30T10:38:25.896Z,90.02
2018-12-30T10:39:33.101Z,90.00
2018-12-30T10:40:39.788Z,89.98
2018-12-30T10:41:46.950Z,89.95
2018-12-30T10:42:54.124Z,89.95
2018-12-30T10:44:01.212Z,89.93
2018-12-30T10:45:08.164Z,89.94
2018-12-30T10:46:14.723Z,89.90
2018-12-30T10:47:21.904Z,89.85
2018-12-30T10:48:28.493Z,89.85
2018-12-30T10:49:35.727Z,89.81
2018-12-30T10:50:42.290Z,89.76
2018-12-30T10:51:49.451Z,89.73
2018-12-30T10:52:56.532Z,89.71
2018-12-30T10:54:03.724Z,89.70
2018-12-30T10:55:10.375Z,89.67
2018-12-30T10:56:17.545Z,89.62
2018-12-30T10:57:24.724Z,89.61
2018-12-30T10:58:31.403Z,89.61
2018-12-30T10:59:38.176Z,89.60
2018-12-30T11:00:44.720Z,89.58
2018-12-30T11:01:52.091Z,89.55
2018-12-30T11:02:58.755Z,89.55
2018-12-30T11:04:05.940Z,89.52
2018-12-30T11:05:13.199Z,89.51
2018-12-30T11:06:19.844Z,89.49
2018-12-30T11:07:26.964Z,89.48
2018-12-30T11:08:34.108Z,89.48
2018-12-30T11:09:40.892Z,89.47
2018-12-30T11:10:47.557Z,89.46
2018-12-30T11:11:54.936Z,89.47
2018-12-30T11:13:01.588Z,89.47
2018-12-30T11:14:08.368Z,89.46
2018-12-30T11:15:15.123Z,89.45
2018-12-30T11:16:21.884Z,89.44
2018-12-30T11:17:28.486Z,89.42
2018-12-30T11:18:35.713Z,89.40
2018-12-30T11:19:42.508Z,89.36
2018-12-30T11:20:49.147Z,89.34
2018-12-30T11:21:56.328Z,89.32
2018-12-30T11:23:03.095Z,89.28
2018-12-30T11:24:09.879Z,89.22
2018-12-30T11:25:16.624Z,89.18
2018-12-30T11:26:23.384Z,89.13
2018-12-30T11:27:30.039Z,89.10
2018-12-30T11:28:36.784Z,89.07
2018-12-30T11:29:43.429Z,89.06
2018-12-30T11:30:50.750Z,89.02
2018-12-30T11:31:57.415Z,88.99
2018-12-30T11:33:04.283Z,88.97
2018-12-30T11:34:11.045Z,88.94
2018-12-30T11:35:17.797Z,88.95
2018-12-30T11:36:24.573Z,88.93
2018-12-30T11:37:31.235Z,88.93
2018-12-30T11:38:37.996Z,88.89
2018-12-30T11:39:44.688Z,88.84
2018-12-30T11:40:51.533Z,88.79
2018-12-30T11:41:58.258Z,88.76
2018-12-30T11:43:05.575Z,88.73
2018-12-30T11:44:12.244Z,88.72
2018-12-30T11:45:19.026Z,88.70
2018-12-30T11:46:25.658Z,88.69
2018-12-30T11:47:32.834Z,88.65
2018-12-30T11:48:39.710Z,88.62
2018-12-30T11:49:46.613Z,88.58
2018-12-30T11:50:53.556Z,88.55
2018-12-30T11:52:00.315Z,88.51
2018-12-30T11:53:07.080Z,88.49
2018-12-30T11:54:16.522Z,88.45
2018-12-30T11:55:20.505Z,88.43
2018-12-30T11:56:27.097Z,88.40
2018-12-30T11:57:34.338Z,88.37
2018-12-30T11:58:40.903Z,88.36
2018-12-30T11:59:48.117Z,88.35
2018-12-30T12:00:55.141Z,88.34
2018-12-30T12:02:01.814Z,88.33
2018-12-30T12:03:08.581Z,88.35
2018-12-30T12:04:15.232Z,88.34
2018-12-30T12:05:22.532Z,88.36
2018-12-30T12:06:29.182Z,88.34
2018-12-30T12:07:36.440Z,88.30
2018-12-30T12:08:43.048Z,88.27
2018-12-30T12:09:50.281Z,88.23
2018-12-30T12:10:56.973Z,88.24
2018-12-30T12:12:03.724Z,88.24
2018-12-30T12:13:10.394Z,88.22
2018-12-30T12:14:17.247Z,88.22
2018-12-30T12:15:24.032Z,88.23
2018-12-30T12:16:30.657Z,88.24
2018-12-30T12:17:37.947Z,88.24
2018-12-30T12:18:44.593Z,88.23
2018-12-30T12:19:52.005Z,88.21
2018-12-30T12:20:58.744Z,88.19
2018-12-30T12:22:06.035Z,88.17
2018-12-30T12:23:12.677Z,88.15
2018-12-30T12:24:24.225Z,88.16
2018-12-30T12:25:26.671Z,88.13
2018-12-30T12:26:33.172Z,88.14
2018-12-30T12:27:40.269Z,88.11
2018-12-30T12:28:47.363Z,88.11
2018-12-30T12:29:54.620Z,88.09
2018-12-30T12:31:01.308Z,88.03
2018-12-30T12:32:08.069Z,88.01
2018-12-30T12:33:14.814Z,88.00
2018-12-30T12:34:21.646Z,87.97
2018-12-30T12:35:28.337Z,87.98
2018-12-30T12:36:35.641Z,87.95
2018-12-30T12:37:42.395Z,87.94
2018-12-30T12:38:49.147Z,87.94
2018-12-30T12:39:55.708Z,87.96
2018-12-30T12:41:03.003Z,87.93
2018-12-30T12:42:09.509Z,87.92
2018-12-30T12:43:16.698Z,87.92
2018-12-30T12:44:23.900Z,87.94
2018-12-30T12:45:30.500Z,87.90
2018-12-30T12:46:37.650Z,87.90
2018-12-30T12:47:44.800Z,87.90
2018-12-30T12:48:51.599Z,87.88
2018-12-30T12:49:58.228Z,87.87
2018-12-30T12:51:05.523Z,87.87
2018-12-30T12:52:12.273Z,87.84
2018-12-30T12:53:18.912Z,87.84
2018-12-30T12:54:32.057Z,87.83
2018-12-30T12:55:32.817Z,87.82
2018-12-30T12:56:39.574Z,87.82
2018-12-30T12:57:46.301Z,87.80
2018-12-30T12:58:52.983Z,87.77
2018-12-30T12:59:59.734Z,87.78
2018-12-30T13:01:06.387Z,87.76
2018-12-30T13:02:13.505Z,87.72
2018-12-30T13:03:20.737Z,87.72
2018-12-30T13:04:27.431Z,87.68
2018-12-30T13:05:34.591Z,87.69
2018-12-30T13:06:41.713Z,87.69
2018-12-30T13:07:48.956Z,87.66
2018-12-30T13:08:55.493Z,87.65
2018-12-30T13:10:02.688Z,87.64
2018-12-30T13:11:09.628Z,87.66
2018-12-30T13:12:16.316Z,87.61
2018-12-30T13:13:23.068Z,87.62
2018-12-30T13:14:29.821Z,87.63
2018-12-30T13:15:36.591Z,87.60
2018-12-30T13:16:43.228Z,87.56
2018-12-30T13:17:50.488Z,87.52
2018-12-30T13:18:57.303Z,87.50
2018-12-30T13:20:03.961Z,87.47
2018-12-30T13:21:10.664Z,87.46
2018-12-30T13:22:17.920Z,87.43
2018-12-30T13:23:24.676Z,87.42
2018-12-30T13:24:31.501Z,87.36
2018-12-30T13:25:38.491Z,87.36
2018-12-30T13:26:45.092Z,87.31
2018-12-30T13:27:52.364Z,87.28
2018-12-30T13:28:59.100Z,87.25
2018-12-30T13:30:06.380Z,87.22
2018-12-30T13:31:13.088Z,87.20
2018-12-30T13:32:20.316Z,87.16
2018-12-30T13:33:26.926Z,87.13
2018-12-30T13:34:34.174Z,87.10
2018-12-30T13:35:43.533Z,87.10
2018-12-30T13:36:49.760Z,87.08
2018-12-30T13:37:55.011Z,87.07
2018-12-30T13:39:01.793Z,87.03
2018-12-30T13:40:08.842Z,87.02
2018-12-30T13:41:15.682Z,87.00
2018-12-30T13:42:22.448Z,86.98
2018-12-30T13:43:29.122Z,86.98
2018-12-30T13:44:35.883Z,86.97
2018-12-30T13:45:42.528Z,86.92
2018-12-30T13:46:54.004Z,86.91
2018-12-30T13:47:56.157Z,86.87
2018-12-30T13:49:02.841Z,86.85
2018-12-30T13:50:10.096Z,86.81
2018-12-30T13:51:16.715Z,86.79
2018-12-30T13:52:23.928Z,86.75
2018-12-30T13:53:30.507Z,86.73
2018-12-30T13:54:37.664Z,86.70
2018-12-30T13:55:44.185Z,86.68
2018-12-30T13:56:51.515Z,86.67
2018-12-30T13:57:58.330Z,86.64
2018-12-30T13:59:05.239Z,86.60
2018-12-30T14:00:11.901Z,86.58
2018-12-30T14:01:19.084Z,86.57
2018-12-30T14:02:25.741Z,86.51
2018-12-30T14:03:32.932Z,86.51
2018-12-30T14:04:39.628Z,86.49
2018-12-30T14:05:46.236Z,86.48
2018-12-30T14:06:53.439Z,86.45
2018-12-30T14:08:00.179Z,86.40
2018-12-30T14:09:06.963Z,86.36
2018-12-30T14:10:13.609Z,86.34
2018-12-30T14:11:20.880Z,86.31
2018-12-30T14:12:27.587Z,86.29
2018-12-30T14:13:34.229Z,86.27
2018-12-30T14:14:40.965Z,86.26
2018-12-30T14:15:51.087Z,86.20
2018-12-30T14:16:54.862Z,86.16
2018-12-30T14:18:01.577Z,86.10
2018-12-30T14:19:08.371Z,86.09
2018-12-30T14:20:15.009Z,86.07
2018-12-30T14:21:22.292Z,86.04